createdAt,value
2018-05-26T00:02:23.651Z,14.40
2018-05-26T00:04:51.129Z,14.30
2018-05-26T00:07:18.587Z,14.30
2018-05-26T00:09:46.041Z,14.40
2018-05-26T00:12:13.497Z,14.40
2018-05-26T00:14:40.970Z,14.40
2018-05-26T00:17:08.417Z,14.40
2018-05-26T00:19:35.972Z,14.40
2018-05-26T00:22:03.418Z,14.30
2018-05-26T00:24:30.878Z,14.30
2018-05-26T00:26:58.323Z,14.40
2018-05-26T00:29:25.781Z,14.30
2018-05-26T00:31:53.233Z,14.10
2018-05-26T00:34:20.681Z,14.10
2018-05-26T00:36:48.918Z,14.00
2018-05-26T00:39:16.369Z,14.00
2018-05-26T00:41:43.821Z,14.10
2018-05-26T00:44:11.266Z,14.00
2018-05-26T00:46:38.727Z,13.90
2018-05-26T00:49:06.190Z,13.90
2018-05-26T00:51:33.636Z,14.00
2018-05-26T00:54:01.102Z,14.00
2018-05-26T00:56:28.559Z,14.00
2018-05-26T00:58:56.028Z,14.00
2018-05-26T01:01:23.482Z,14.00
2018-05-26T01:03:50.963Z,14.00
2018-05-26T01:06:18.422Z,13.90
2018-05-26T01:08:45.889Z,13.90
2018-05-26T01:11:13.334Z,14.00
2018-05-26T01:13:40.801Z,14.00
2018-05-26T01:16:09.011Z,13.90
2018-05-26T01:18:36.474Z,13.90
2018-05-26T01:21:03.924Z,13.90
2018-05-26T01:23:31.401Z,13.90
2018-05-26T01:25:58.859Z,14.00
2018-05-26T01:28:26.306Z,13.90
2018-05-26T01:30:53.763Z,13.90
2018-05-26T01:33:21.209Z,13.80
2018-05-26T01:35:48.711Z,13.80
2018-05-26T01:38:16.165Z,13.70
2018-05-26T01:40:43.625Z,13.70
2018-05-26T01:43:11.073Z,13.70
2018-05-26T01:45:38.526Z,13.70
2018-05-26T01:48:05.980Z,13.60
2018-05-26T01:50:33.430Z,13.60
2018-05-26T01:53:00.898Z,13.60
2018-05-26T01:55:28.349Z,13.50
2018-05-26T01:57:55.805Z,13.50
2018-05-26T02:00:23.261Z,13.50
2018-05-26T02:02:50.717Z,13.50
2018-05-26T02:05:18.166Z,13.50
2018-05-26T02:07:45.618Z,13.40
2018-05-26T02:10:13.067Z,13.40
2018-05-26T02:12:40.535Z,13.50
2018-05-26T02:15:07.990Z,13.50
2018-05-26T02:17:35.449Z,13.50
2018-05-26T02:20:02.910Z,13.50
2018-05-26T02:22:30.363Z,13.40
2018-05-26T02:24:57.820Z,13.40
2018-05-26T02:27:25.262Z,13.40
2018-05-26T02:29:52.735Z,13.40
2018-05-26T02:32:20.190Z,13.30
2018-05-26T02:34:47.651Z,13.30
2018-05-26T02:37:15.114Z,13.30
2018-05-26T02:39:42.558Z,13.20
2018-05-26T02:42:10.013Z,13.10
2018-05-26T02:44:37.461Z,13.10
2018-05-26T02:47:04.919Z,13.20
2018-05-26T02:49:32.397Z,13.10
2018-05-26T02:51:59.868Z,13.20
2018-05-26T02:54:27.325Z,13.20
2018-05-26T02:56:54.778Z,13.20
2018-05-26T02:59:22.253Z,13.20
2018-05-26T03:01:49.701Z,13.10
2018-05-26T03:04:22.794Z,13.00
2018-05-26T03:06:56.063Z,13.00
2018-05-26T03:09:29.260Z,12.90
2018-05-26T03:12:02.481Z,12.90
2018-05-26T03:14:35.733Z,13.00
2018-05-26T03:17:03.200Z,13.00
2018-05-26T03:19:30.644Z,13.10
2018-05-26T03:21:58.120Z,13.10
2018-05-26T03:24:25.573Z,13.10
2018-05-26T03:26:53.035Z,13.10
2018-05-26T03:29:20.477Z,13.10
2018-05-26T03:31:47.954Z,13.00
2018-05-26T03:34:16.173Z,12.90
2018-05-26T03:36:44.407Z,12.90
2018-05-26T03:39:11.865Z,12.90
2018-05-26T03:41:39.313Z,12.90
2018-05-26T03:44:06.776Z,13.00
2018-05-26T03:46:34.997Z,13.10
2018-05-26T03:49:03.217Z,13.10
2018-05-26T03:51:30.669Z,13.10
2018-05-26T03:53:58.118Z,13.20
2018-05-26T03:56:37.643Z,13.30
2018-05-26T03:59:18.038Z,13.40
2018-05-26T04:01:45.497Z,13.50
2018-05-26T04:04:12.955Z,13.60
2018-05-26T04:06:40.416Z,13.60
2018-05-26T04:09:07.865Z,13.70
2018-05-26T04:11:35.335Z,13.70
2018-05-26T04:14:02.787Z,13.80
2018-05-26T04:16:30.259Z,13.70
2018-05-26T04:18:57.710Z,13.70
2018-05-26T04:21:25.164Z,13.70
2018-05-26T04:23:52.615Z,13.80
2018-05-26T04:26:20.075Z,13.90
2018-05-26T04:28:47.531Z,14.00
2018-05-26T04:31:14.985Z,14.20
2018-05-26T04:33:43.204Z,14.70
2018-05-26T04:36:11.434Z,15.00
2018-05-26T04:38:38.889Z,14.90
2018-05-26T04:41:06.354Z,15.10
2018-05-26T04:43:33.806Z,15.20
2018-05-26T04:46:01.261Z,15.20
2018-05-26T04:48:28.720Z,15.40
2018-05-26T04:50:56.175Z,15.60
2018-05-26T04:53:23.633Z,15.60
2018-05-26T04:55:51.086Z,15.70
2018-05-26T04:58:18.546Z,15.80
2018-05-26T05:00:45.998Z,15.90
2018-05-26T05:03:13.462Z,16.00
2018-05-26T05:05:40.957Z,16.30
2018-05-26T05:08:08.397Z,16.50
2018-05-26T05:10:35.854Z,16.80
2018-05-26T05:13:03.302Z,17.00
2018-05-26T05:15:30.774Z,17.20
2018-05-26T05:17:58.246Z,17.40
2018-05-26T05:20:26.474Z,17.60
2018-05-26T05:22:53.946Z,17.60
2018-05-26T05:25:21.393Z,17.70
2018-05-26T05:27:48.865Z,17.60
2018-05-26T05:30:16.326Z,17.50
2018-05-26T05:32:43.791Z,17.30
2018-05-26T05:35:11.246Z,17.10
2018-05-26T05:37:38.728Z,17.00
2018-05-26T05:40:06.952Z,17.10
2018-05-26T05:42:34.413Z,17.10
2018-05-26T05:45:01.881Z,17.20
2018-05-26T05:47:29.335Z,17.40
2018-05-26T05:49:56.817Z,17.40
2018-05-26T05:52:25.054Z,17.70
2018-05-26T05:54:52.586Z,17.70
2018-05-26T05:57:20.036Z,17.80
2018-05-26T05:59:47.485Z,17.90
2018-05-26T06:02:14.939Z,17.80
2018-05-26T06:04:42.395Z,17.90
2018-05-26T06:07:10.615Z,18.00
2018-05-26T06:09:38.059Z,18.00
2018-05-26T06:12:05.517Z,18.20
2018-05-26T06:14:32.961Z,18.40
2018-05-26T06:17:00.565Z,18.30
2018-05-26T06:19:28.017Z,18.20
2018-05-26T06:21:55.460Z,18.20
2018-05-26T06:24:22.915Z,18.30
2018-05-26T06:26:50.359Z,18.10
2018-05-26T06:29:17.842Z,18.20
2018-05-26T06:31:45.300Z,18.40
2018-05-26T06:34:12.778Z,18.50
2018-05-26T06:36:40.230Z,18.50
2018-05-26T06:39:07.716Z,18.70
2018-05-26T06:41:35.928Z,18.70
2018-05-26T06:44:03.386Z,18.70
2018-05-26T06:46:30.841Z,18.70
2018-05-26T06:48:58.293Z,18.90
2018-05-26T06:51:25.749Z,19.00
2018-05-26T06:53:53.214Z,19.00
2018-05-26T06:56:20.666Z,18.90
2018-05-26T06:58:48.138Z,19.00
2018-05-26T07:01:15.597Z,19.00
2018-05-26T07:03:43.062Z,18.70
2018-05-26T07:06:10.521Z,18.70
2018-05-26T07:08:37.968Z,18.50
2018-05-26T07:11:05.429Z,18.70
2018-05-26T07:13:32.888Z,18.70
2018-05-26T07:16:00.346Z,18.90
2018-05-26T07:18:27.798Z,18.90
2018-05-26T07:20:55.265Z,19.20
2018-05-26T07:23:22.729Z,19.20
2018-05-26T07:25:50.190Z,19.30
2018-05-26T07:28:17.653Z,19.30
2018-05-26T07:30:45.888Z,19.30
2018-05-26T07:33:13.353Z,19.30
2018-05-26T07:35:40.809Z,19.20
2018-05-26T07:38:08.279Z,19.30
2018-05-26T07:40:35.721Z,19.40
2018-05-26T07:43:03.181Z,19.20
2018-05-26T07:45:30.639Z,19.40
2018-05-26T07:47:58.102Z,19.40
2018-05-26T07:50:25.577Z,19.60
2018-05-26T07:52:53.042Z,19.50
2018-05-26T07:55:20.497Z,19.70
2018-05-26T07:57:47.977Z,19.50
2018-05-26T08:00:15.458Z,19.50
2018-05-26T08:02:42.940Z,19.50
2018-05-26T08:05:10.389Z,19.50
2018-05-26T08:07:37.866Z,19.60
2018-05-26T08:10:05.348Z,19.60
2018-05-26T08:12:33.581Z,19.70
2018-05-26T08:15:01.041Z,19.60
2018-05-26T08:17:28.567Z,19.80
2018-05-26T08:19:55.961Z,19.60
2018-05-26T08:22:24.185Z,19.70
2018-05-26T08:24:52.408Z,19.80
2018-05-26T08:27:19.892Z,19.80
2018-05-26T08:29:47.345Z,19.90
2018-05-26T08:32:14.789Z,19.80
2018-05-26T08:34:42.259Z,20.00
2018-05-26T08:37:09.713Z,19.80
2018-05-26T08:39:37.170Z,19.80
2018-05-26T08:42:04.630Z,20.10
2018-05-26T08:44:32.110Z,20.00
2018-05-26T08:47:00.329Z,20.30
2018-05-26T08:49:27.797Z,20.30
2018-05-26T08:51:55.258Z,20.40
2018-05-26T08:54:22.739Z,20.50
2018-05-26T08:56:50.206Z,20.60
2018-05-26T08:59:18.444Z,20.60
2018-05-26T09:01:45.889Z,20.50
2018-05-26T09:04:13.356Z,20.40
2018-05-26T09:06:40.810Z,20.30
2018-05-26T09:09:08.265Z,20.30
2018-05-26T09:11:35.716Z,20.50
2018-05-26T09:14:03.184Z,20.60
2018-05-26T09:16:30.638Z,20.80
2018-05-26T09:18:58.102Z,20.90
2018-05-26T09:21:25.553Z,21.00
2018-05-26T09:23:53.028Z,21.20
2018-05-26T09:26:20.472Z,21.50
2018-05-26T09:28:47.929Z,21.50
2018-05-26T09:31:15.427Z,21.60
2018-05-26T09:33:42.835Z,21.80
2018-05-26T09:36:10.291Z,21.70
2018-05-26T09:38:37.757Z,21.80
2018-05-26T09:41:05.231Z,22.00
2018-05-26T09:43:32.681Z,22.10
2018-05-26T09:46:00.133Z,22.10
2018-05-26T09:48:27.602Z,22.10
2018-05-26T09:50:55.073Z,22.20
2018-05-26T09:53:22.531Z,22.20
2018-05-26T09:55:50.110Z,22.30
2018-05-26T09:58:17.567Z,22.50
2018-05-26T10:00:45.790Z,22.80
2018-05-26T10:03:13.250Z,22.80
2018-05-26T10:05:40.713Z,23.00
2018-05-26T10:08:08.172Z,22.80
2018-05-26T10:10:35.621Z,22.90
2018-05-26T10:13:03.075Z,22.90
2018-05-26T10:15:30.545Z,23.20
2018-05-26T10:17:57.994Z,23.10
2018-05-26T10:20:25.453Z,23.10
2018-05-26T10:22:52.906Z,23.10
2018-05-26T10:25:20.363Z,23.10
2018-05-26T10:27:47.813Z,23.00
2018-05-26T10:30:15.285Z,23.10
2018-05-26T10:32:42.765Z,23.00
2018-05-26T10:35:10.222Z,23.10
2018-05-26T10:37:38.457Z,23.20
2018-05-26T10:40:05.907Z,23.20
2018-05-26T10:42:33.370Z,23.20
2018-05-26T10:45:00.834Z,23.40
2018-05-26T10:47:28.289Z,23.40
2018-05-26T10:49:55.784Z,23.70
2018-05-26T10:52:23.232Z,23.60
2018-05-26T10:54:50.705Z,23.50
2018-05-26T10:57:18.929Z,23.30
2018-05-26T10:59:46.378Z,23.30
2018-05-26T11:02:13.842Z,23.40
2018-05-26T11:04:41.312Z,23.60
2018-05-26T11:07:08.769Z,23.80
2018-05-26T11:09:36.245Z,24.00
2018-05-26T11:12:03.689Z,24.10
2018-05-26T11:14:31.201Z,24.00
2018-05-26T11:16:58.647Z,24.20
2018-05-26T11:19:26.873Z,24.30
2018-05-26T11:21:54.328Z,24.20
2018-05-26T11:24:21.898Z,24.40
2018-05-26T11:26:49.303Z,24.50
2018-05-26T11:29:16.760Z,24.50
2018-05-26T11:31:44.217Z,24.50
2018-05-26T11:34:11.678Z,24.60
2018-05-26T11:36:39.129Z,24.60
2018-05-26T11:39:06.584Z,24.50
2018-05-26T11:41:34.185Z,24.60
2018-05-26T11:44:01.644Z,24.60
2018-05-26T11:46:29.101Z,24.60
2018-05-26T11:48:56.564Z,24.70
2018-05-26T11:51:24.030Z,24.60
2018-05-26T11:53:51.474Z,24.70
2018-05-26T11:56:18.942Z,24.80
2018-05-26T11:58:46.385Z,24.90
2018-05-26T12:01:13.871Z,24.70
2018-05-26T12:03:41.354Z,24.70
2018-05-26T12:06:09.577Z,24.70
2018-05-26T12:08:37.046Z,24.70
2018-05-26T12:11:04.568Z,24.70
2018-05-26T12:13:32.757Z,24.80
2018-05-26T12:16:00.217Z,24.80
2018-05-26T12:18:27.681Z,25.00
2018-05-26T12:20:55.141Z,25.20
2018-05-26T12:23:22.602Z,25.30
2018-05-26T12:25:50.117Z,25.40
2018-05-26T12:28:17.574Z,25.50
2018-05-26T12:30:45.029Z,25.40
2018-05-26T12:33:12.485Z,25.20
2018-05-26T12:35:39.936Z,25.10
2018-05-26T12:38:08.168Z,25.30
2018-05-26T12:40:35.605Z,25.30
2018-05-26T12:43:03.070Z,25.40
2018-05-26T12:45:30.533Z,25.20
2018-05-26T12:47:57.986Z,25.40
2018-05-26T12:50:25.459Z,25.40
2018-05-26T12:52:52.933Z,25.30
2018-05-26T12:55:20.394Z,25.20
2018-05-26T12:57:48.602Z,25.60
2018-05-26T13:00:16.064Z,25.60
2018-05-26T13:02:43.534Z,25.60
2018-05-26T13:05:10.997Z,25.80
2018-05-26T13:07:38.458Z,25.50
2018-05-26T13:10:05.916Z,25.30
2018-05-26T13:12:33.374Z,25.30
2018-05-26T13:15:00.839Z,25.20
2018-05-26T13:17:28.319Z,25.30
2018-05-26T13:19:55.770Z,25.40
2018-05-26T13:22:23.232Z,25.30
2018-05-26T13:24:50.690Z,25.30
2018-05-26T13:27:18.170Z,25.40
2018-05-26T13:29:46.392Z,25.40
2018-05-26T13:32:13.841Z,25.40
2018-05-26T13:34:41.301Z,25.70
2018-05-26T13:37:08.771Z,25.90
2018-05-26T13:39:36.233Z,25.80
2018-05-26T13:42:03.713Z,25.90
2018-05-26T13:44:31.926Z,25.60
2018-05-26T13:46:59.427Z,25.60
2018-05-26T13:49:26.879Z,25.70
2018-05-26T13:51:54.377Z,26.00
2018-05-26T13:54:21.867Z,26.20
2018-05-26T13:56:49.265Z,26.10
2018-05-26T13:59:16.710Z,25.60
2018-05-26T14:01:44.170Z,25.60
2018-05-26T14:04:11.629Z,25.70
2018-05-26T14:06:39.081Z,25.80
2018-05-26T14:09:06.533Z,25.90
2018-05-26T14:11:33.982Z,25.90
2018-05-26T14:14:01.518Z,26.00
2018-05-26T14:16:28.962Z,25.90
2018-05-26T14:18:56.413Z,25.80
2018-05-26T14:21:23.864Z,25.60
2018-05-26T14:23:52.082Z,25.80
2018-05-26T14:26:19.535Z,25.80
2018-05-26T14:28:47.005Z,25.80
2018-05-26T14:31:14.452Z,26.00
2018-05-26T14:33:41.917Z,25.80
2018-05-26T14:36:09.376Z,25.70
2018-05-26T14:38:36.838Z,25.70
2018-05-26T14:41:04.291Z,25.70
2018-05-26T14:43:31.740Z,26.00
2018-05-26T14:45:59.182Z,25.90
2018-05-26T14:48:26.638Z,25.70
2018-05-26T14:50:54.348Z,26.10
2018-05-26T14:53:21.787Z,26.00
2018-05-26T14:55:49.356Z,26.10
2018-05-26T14:58:16.815Z,26.30
2018-05-26T15:00:44.257Z,26.40
2018-05-26T15:03:11.714Z,26.30
2018-05-26T15:05:39.175Z,26.20
2018-05-26T15:08:06.635Z,26.40
2018-05-26T15:10:34.081Z,26.50
2018-05-26T15:13:01.624Z,26.40
2018-05-26T15:15:29.086Z,26.60
2018-05-26T15:17:56.649Z,26.70
2018-05-26T15:20:24.096Z,26.30
2018-05-26T15:22:51.545Z,26.40
2018-05-26T15:25:19.020Z,26.30
2018-05-26T15:27:46.476Z,26.20
2018-05-26T15:30:13.941Z,26.10
2018-05-26T15:32:41.391Z,26.30
2018-05-26T15:35:08.832Z,26.40
2018-05-26T15:37:36.281Z,26.50
2018-05-26T15:40:03.729Z,26.50
2018-05-26T15:42:31.182Z,26.60
2018-05-26T15:44:58.626Z,27.40
2018-05-26T15:47:26.077Z,29.00
2018-05-26T15:49:54.316Z,31.20
2018-05-26T15:52:21.770Z,31.10
2018-05-26T15:54:49.980Z,32.20
2018-05-26T15:57:18.197Z,32.60
2018-05-26T15:59:45.649Z,32.50
2018-05-26T16:02:13.245Z,32.90
2018-05-26T16:04:40.762Z,33.60
2018-05-26T16:07:08.227Z,34.70
2018-05-26T16:09:35.670Z,35.00
2018-05-26T16:12:03.139Z,34.80
2018-05-26T16:14:30.698Z,34.60
2018-05-26T16:16:58.145Z,34.90
2018-05-26T16:19:25.612Z,36.20
2018-05-26T16:21:53.273Z,36.40
2018-05-26T16:24:20.718Z,37.20
2018-05-26T16:26:48.176Z,37.80
2018-05-26T16:29:15.620Z,37.60
2018-05-26T16:31:43.092Z,38.10
2018-05-26T16:34:10.539Z,37.30
2018-05-26T16:36:37.996Z,36.80
2018-05-26T16:39:06.212Z,36.50
2018-05-26T16:41:33.666Z,36.50
2018-05-26T16:44:01.137Z,36.60
2018-05-26T16:46:28.594Z,37.20
2018-05-26T16:48:56.045Z,36.00
2018-05-26T16:51:23.491Z,35.00
2018-05-26T16:53:50.953Z,34.60
2018-05-26T16:56:18.474Z,33.50
2018-05-26T16:58:45.934Z,33.80
2018-05-26T17:01:13.399Z,34.00
2018-05-26T17:03:40.848Z,33.00
2018-05-26T17:06:08.311Z,32.30
2018-05-26T17:08:35.771Z,32.00
2018-05-26T17:11:03.232Z,31.40
2018-05-26T17:13:30.677Z,31.60
2018-05-26T17:15:58.158Z,31.30
2018-05-26T17:18:25.604Z,30.80
2018-05-26T17:20:53.057Z,30.20
2018-05-26T17:23:20.522Z,29.20
2018-05-26T17:25:47.975Z,28.70
2018-05-26T17:28:15.458Z,28.60
2018-05-26T17:30:42.920Z,28.60
2018-05-26T17:33:10.368Z,28.40
2018-05-26T17:35:37.834Z,28.00
2018-05-26T17:38:05.314Z,27.60
2018-05-26T17:40:32.775Z,27.20
2018-05-26T17:43:00.243Z,27.10
2018-05-26T17:45:28.469Z,26.50
2018-05-26T17:47:55.915Z,26.50
2018-05-26T17:50:23.357Z,26.30
2018-05-26T17:52:50.807Z,25.80
2018-05-26T17:55:18.287Z,25.60
2018-05-26T17:57:45.741Z,25.40
2018-05-26T18:00:13.205Z,25.20
2018-05-26T18:02:40.656Z,25.20
2018-05-26T18:05:08.123Z,25.10
2018-05-26T18:07:35.586Z,25.00
2018-05-26T18:10:03.042Z,24.80
2018-05-26T18:12:30.494Z,24.80
2018-05-26T18:14:57.945Z,24.70
2018-05-26T18:17:25.425Z,24.60
2018-05-26T18:19:52.866Z,24.40
2018-05-26T18:22:21.110Z,24.10
2018-05-26T18:24:48.550Z,24.10
2018-05-26T18:27:16.872Z,24.00
2018-05-26T18:29:44.317Z,23.90
2018-05-26T18:32:11.773Z,23.80
2018-05-26T18:34:39.239Z,23.70
2018-05-26T18:37:06.698Z,23.70
2018-05-26T18:39:34.141Z,23.60
2018-05-26T18:42:01.600Z,23.50
2018-05-26T18:44:29.063Z,23.40
2018-05-26T18:46:56.496Z,23.30
2018-05-26T18:49:23.970Z,23.20
2018-05-26T18:51:51.409Z,23.10
2018-05-26T18:54:18.862Z,23.00
2018-05-26T18:56:46.332Z,23.00
2018-05-26T18:59:13.786Z,22.90
2018-05-26T19:01:41.228Z,22.80
2018-05-26T19:04:09.463Z,22.40
2018-05-26T19:06:36.979Z,22.40
2018-05-26T19:09:04.389Z,22.30
2018-05-26T19:11:31.835Z,22.20
2018-05-26T19:13:59.291Z,22.10
2018-05-26T19:16:26.753Z,22.00
2018-05-26T19:18:54.210Z,21.90
2018-05-26T19:21:21.669Z,21.80
2018-05-26T19:23:49.117Z,21.70
2018-05-26T19:26:16.572Z,21.60
2018-05-26T19:28:44.025Z,21.50
2018-05-26T19:31:11.481Z,21.40
2018-05-26T19:33:38.935Z,21.30
2018-05-26T19:36:06.397Z,21.20
2018-05-26T19:38:33.858Z,21.10
2018-05-26T19:41:01.302Z,21.00
2018-05-26T19:43:28.763Z,21.00
2018-05-26T19:45:56.217Z,20.90
2018-05-26T19:48:23.684Z,20.80
2018-05-26T19:50:51.133Z,20.70
2018-05-26T19:53:18.598Z,20.70
2018-05-26T19:55:46.051Z,20.60
2018-05-26T19:58:13.513Z,20.50
2018-05-26T20:00:40.970Z,20.40
2018-05-26T20:03:08.461Z,20.40
2018-05-26T20:05:36.699Z,20.40
2018-05-26T20:08:04.161Z,20.30
2018-05-26T20:10:31.621Z,20.20
2018-05-26T20:12:59.072Z,20.20
2018-05-26T20:15:26.533Z,20.10
2018-05-26T20:17:53.996Z,20.10
2018-05-26T20:20:21.448Z,19.90
2018-05-26T20:22:48.891Z,19.80
2018-05-26T20:25:16.360Z,19.80
2018-05-26T20:27:43.817Z,19.80
2018-05-26T20:30:12.038Z,19.70
2018-05-26T20:32:40.258Z,19.60
2018-05-26T20:35:07.797Z,19.60
2018-05-26T20:37:35.257Z,19.60
2018-05-26T20:40:02.722Z,19.50
2018-05-26T20:42:30.185Z,19.40
2018-05-26T20:44:57.637Z,19.40
2018-05-26T20:47:25.098Z,19.30
2018-05-26T20:49:52.545Z,19.30
2018-05-26T20:52:20.028Z,19.30
2018-05-26T20:54:47.478Z,19.20
2018-05-26T20:57:14.950Z,19.10
2018-05-26T20:59:42.410Z,19.10
2018-05-26T21:02:09.869Z,19.00
2018-05-26T21:04:37.341Z,19.00
2018-05-26T21:07:05.569Z,18.90
2018-05-26T21:09:33.019Z,18.90
2018-05-26T21:12:00.574Z,18.80
2018-05-26T21:14:28.045Z,18.80
2018-05-26T21:16:55.497Z,18.70
2018-05-26T21:19:22.968Z,18.70
2018-05-26T21:21:50.418Z,18.70
2018-05-26T21:24:17.879Z,18.70
2018-05-26T21:26:45.346Z,18.70
2018-05-26T21:29:12.799Z,18.70
2018-05-26T21:31:40.270Z,18.70
2018-05-26T21:34:07.731Z,18.60
2018-05-26T21:36:35.202Z,18.50
2018-05-26T21:39:03.426Z,18.40
2018-05-26T21:41:30.885Z,18.40
2018-05-26T21:43:58.341Z,18.50
2018-05-26T21:46:25.807Z,18.40
2018-05-26T21:48:53.267Z,18.40
2018-05-26T21:51:20.738Z,18.40
2018-05-26T21:53:48.187Z,18.40
2018-05-26T21:56:15.650Z,18.40
2018-05-26T21:58:43.141Z,18.30
2018-05-26T22:01:10.593Z,18.20
2018-05-26T22:03:38.070Z,18.10
2018-05-26T22:06:05.574Z,18.10
2018-05-26T22:08:33.010Z,18.10
2018-05-26T22:11:00.473Z,18.00
2018-05-26T22:13:27.929Z,17.90
2018-05-26T22:15:55.399Z,17.80
2018-05-26T22:18:22.874Z,17.80
2018-05-26T22:20:50.325Z,17.80
2018-05-26T22:23:17.785Z,17.80
2018-05-26T22:25:45.240Z,17.80
2018-05-26T22:28:12.701Z,17.80
2018-05-26T22:30:40.170Z,17.90
2018-05-26T22:33:07.639Z,17.90
2018-05-26T22:35:35.117Z,17.90
2018-05-26T22:38:03.337Z,17.70
2018-05-26T22:40:30.794Z,17.70
2018-05-26T22:42:59.034Z,17.60
2018-05-26T22:45:26.505Z,17.60
2018-05-26T22:47:53.986Z,17.60
2018-05-26T22:50:21.449Z,17.50
2018-05-26T22:52:48.928Z,17.30
2018-05-26T22:55:16.381Z,17.20
2018-05-26T22:57:43.846Z,17.10
2018-05-26T23:00:11.329Z,17.20
2018-05-26T23:02:38.783Z,17.10
2018-05-26T23:05:06.276Z,17.00
2018-05-26T23:07:33.745Z,17.00
2018-05-26T23:10:01.206Z,16.90
2018-05-26T23:12:28.693Z,16.90
2018-05-26T23:14:56.926Z,16.80
2018-05-26T23:17:24.395Z,16.80
2018-05-26T23:19:51.862Z,16.80
2018-05-26T23:22:19.327Z,16.70
2018-05-26T23:24:46.801Z,16.60
2018-05-26T23:27:14.267Z,16.60
2018-05-26T23:29:42.494Z,16.70
2018-05-26T23:32:09.961Z,16.60
2018-05-26T23:34:37.413Z,16.70
2018-05-26T23:37:04.941Z,16.70
2018-05-26T23:39:32.394Z,16.60
2018-05-26T23:41:59.860Z,16.60
2018-05-26T23:44:27.327Z,16.70
2018-05-26T23:46:54.796Z,16.80
2018-05-26T23:49:22.261Z,16.80
2018-05-26T23:51:49.738Z,16.80
2018-05-26T23:54:17.204Z,16.90
2018-05-26T23:56:45.422Z,16.80
2018-05-26T23:59:12.885Z,16.80
